Time;durP1;ratioP1;P1;durP2;ratioP2;P2;SDS_P1;SDS_P2;PMS_P1;PMS_P2;Temp;Humidity;BMP_temperature;BMP_pressure;BME280_temperature;BME280_humidity;BME280_pressure;Samples;Min_cycle;Max_cycle;Signal;HPM_P1;HPM_P2
2022/10/25 00:01:22;;;;;;;21.77;11.60;;;;;;;12.67;91.51;100769.86;1632226;85;21430;-82
2022/10/25 00:03:49;;;;;;;14.90;11.10;;;;;;;12.71;91.64;100770.80;1628781;85;21111;-82
2022/10/25 00:06:16;;;;;;;15.30;11.30;;;;;;;12.73;91.59;100771.27;1638316;85;21106;-83
2022/10/25 00:08:43;;;;;;;19.27;11.35;;;;;;;12.76;91.56;100773.06;1637246;85;21752;-82
2022/10/25 00:11:21;;;;;;;17.20;11.40;;;;;;;12.76;91.50;100771.33;1598695;87;21580;-82
2022/10/25 00:13:49;;;;;;;16.90;10.63;;;;;;;12.80;91.59;100772.24;1640543;85;21161;-82
2022/10/25 00:16:19;;;;;;;19.60;12.00;;;;;;;12.83;91.62;100772.30;1607584;87;21104;-82
2022/10/25 00:18:46;;;;;;;17.35;11.03;;;;;;;12.83;91.46;100777.14;1578772;89;21109;-82
2022/10/25 00:21:12;;;;;;;15.88;11.15;;;;;;;12.82;91.32;100774.51;1616014;87;22580;-82
2022/10/25 00:23:41;;;;;;;17.77;11.97;;;;;;;12.81;91.24;100772.71;1616658;86;21619;-82
2022/10/25 00:26:08;;;;;;;17.52;11.53;;;;;;;12.79;91.16;100770.04;1702303;82;21117;-82
2022/10/25 00:28:35;;;;;;;18.52;11.20;;;;;;;12.78;91.14;100770.92;1750301;80;21124;-82
2022/10/25 00:31:03;;;;;;;21.02;12.15;;;;;;;12.77;91.06;100772.21;1766183;80;21116;-83
2022/10/25 00:33:32;;;;;;;17.35;11.30;;;;;;;12.74;91.04;100775.67;1720692;81;21745;-82
2022/10/25 00:36:15;;;;;;;18.82;11.28;;;;;;;12.72;90.98;100772.12;1764915;80;21033;-82
2022/10/25 00:38:42;;;;;;;23.40;12.55;;;;;;;12.71;91.02;100770.80;1781866;80;21910;-82
2022/10/25 00:41:09;;;;;;;19.48;11.90;;;;;;;12.71;91.12;100767.72;1705441;82;21062;-82
2022/10/25 00:43:39;;;;;;;20.80;12.07;;;;;;;12.72;91.18;100773.88;1706454;82;21069;-82
2022/10/25 00:46:26;;;;;;;24.18;11.80;;;;;;;12.74;91.21;100770.83;1747782;80;21712;-82
2022/10/25 00:49:11;;;;;;;18.20;11.95;;;;;;;12.75;91.21;100772.63;1716305;81;21037;-82
2022/10/25 00:51:53;;;;;;;22.17;12.45;;;;;;;12.75;91.20;100771.30;1754982;80;21401;-82
2022/10/25 00:54:24;;;;;;;19.42;11.50;;;;;;;12.75;91.21;100769.54;1747556;80;21002;-82
2022/10/25 00:56:51;;;;;;;18.23;11.97;;;;;;;12.76;91.18;100767.78;1758634;80;21921;-82
2022/10/25 00:59:21;;;;;;;21.97;11.68;;;;;;;12.76;91.18;100770.42;1757861;80;22172;-81
2022/10/25 01:01:48;;;;;;;19.80;12.78;;;;;;;12.75;91.15;100764.70;1690897;82;21026;-82
2022/10/25 01:04:15;;;;;;;16.23;10.68;;;;;;;12.73;91.07;100764.66;1700062;84;22387;-82
2022/10/25 01:06:49;;;;;;;18.05;11.20;;;;;;;12.71;91.01;100766.84;1707303;82;21062;-82
2022/10/25 01:09:19;;;;;;;16.40;11.55;;;;;;;12.70;91.04;100762.41;1713891;82;21561;-82
2022/10/25 01:11:46;;;;;;;22.42;12.03;;;;;;;12.69;91.02;100763.25;1716450;82;23337;-82
2022/10/25 01:14:14;;;;;;;20.75;10.98;;;;;;;12.66;91.01;100767.19;1718861;82;21082;-82
2022/10/25 01:17:18;;;;;;;17.40;11.28;;;;;;;12.64;91.04;100770.67;1674708;84;21035;-82
2022/10/25 01:20:37;;;;;;;22.32;12.13;;;;;;;12.63;91.02;100770.64;1698927;82;21384;-82
2022/10/25 01:23:30;;;;;;;18.05;11.70;;;;;;;12.62;91.01;100768.88;1701352;82;21584;-82
2022/10/25 01:26:40;;;;;;;18.82;11.73;;;;;;;12.63;91.22;100771.55;1698119;82;21757;-82
2022/10/25 01:29:44;;;;;;;22.37;11.28;;;;;;;12.68;91.36;100769.41;1711785;82;20887;-82
2022/10/25 01:32:29;;;;;;;17.92;11.08;;;;;;;12.73;91.40;100767.31;1710415;82;21010;-83
2022/10/25 01:35:04;;;;;;;17.48;10.95;;;;;;;12.76;91.35;100771.33;1678013;83;20992;-83
2022/10/25 01:37:42;;;;;;;19.40;10.82;;;;;;;12.79;91.25;100771.80;1720885;82;21132;-83
2022/10/25 01:40:36;;;;;;;16.00;10.28;;;;;;;12.78;91.13;100765.64;1690041;83;21847;-82
2022/10/25 01:43:17;;;;;;;17.52;10.05;;;;;;;12.79;91.09;100769.16;1713025;82;21002;-82
2022/10/25 01:46:08;;;;;;;14.58;10.43;;;;;;;12.80;91.17;100769.19;1704473;82;20998;-82
2022/10/25 01:48:45;;;;;;;18.05;11.10;;;;;;;12.83;91.26;100765.26;1685129;84;20981;-82
2022/10/25 01:51:15;;;;;;;19.30;11.73;;;;;;;12.86;91.22;100759.56;1727399;82;21028;-82
2022/10/25 01:53:50;;;;;;;25.30;14.93;;;;;;;12.88;91.15;100765.79;1702050;82;21786;-82
2022/10/25 01:56:35;;;;;;;20.55;10.60;;;;;;;12.87;90.99;100769.28;1747425;80;22221;-82
2022/10/25 01:59:27;;;;;;;19.67;10.78;;;;;;;12.84;90.99;100764.84;1764585;80;21453;-82
2022/10/25 02:02:13;;;;;;;20.37;10.93;;;;;;;12.83;90.78;100773.63;1757498;80;21030;-82
2022/10/25 02:05:00;;;;;;;14.80;9.33;;;;;;;12.81;90.84;100767.43;1765854;80;21025;-82
2022/10/25 02:07:37;;;;;;;21.87;10.13;;;;;;;12.78;90.72;100764.32;1773390;79;22393;-82
2022/10/25 02:10:09;;;;;;;15.00;10.20;;;;;;;12.72;90.70;100761.55;1758003;80;21017;-82
2022/10/25 02:13:01;;;;;;;20.10;10.03;;;;;;;12.72;90.71;100763.31;1757827;80;20982;-82
2022/10/25 02:16:01;;;;;;;13.93;9.65;;;;;;;12.69;90.62;100765.89;1767334;80;21452;-82
2022/10/25 02:18:30;;;;;;;12.45;8.85;;;;;;;12.64;90.56;100765.39;1708854;81;21408;-82
2022/10/25 02:20:57;;;;;;;19.85;9.23;;;;;;;12.60;90.54;100763.57;1740516;80;23949;-82
2022/10/25 02:23:23;;;;;;;15.20;8.45;;;;;;;12.57;90.60;100768.78;1741223;82;21531;-82
2022/10/25 02:25:50;;;;;;;13.13;8.43;;;;;;;12.54;90.64;100766.55;1728834;81;21004;-82
2022/10/25 02:28:18;;;;;;;17.73;9.13;;;;;;;12.52;90.74;100762.56;1752047;80;21012;-83
2022/10/25 02:30:44;;;;;;;14.35;8.38;;;;;;;12.51;90.77;100759.45;1754127;80;21044;-82
2022/10/25 02:33:11;;;;;;;19.50;8.93;;;;;;;12.49;90.74;100761.62;1727764;82;21744;-82
2022/10/25 02:35:38;;;;;;;17.87;9.80;;;;;;;12.47;90.80;100762.91;1717942;82;20982;-82
2022/10/25 02:38:08;;;;;;;14.00;8.33;;;;;;;12.45;90.81;100764.63;1706792;82;21440;-82
2022/10/25 02:40:34;;;;;;;19.60;10.38;;;;;;;12.43;90.80;100762.40;1754562;80;21016;-82
2022/10/25 02:43:01;;;;;;;17.92;10.55;;;;;;;12.40;90.78;100771.13;1762893;80;20968;-82
2022/10/25 02:45:27;;;;;;;12.90;8.48;;;;;;;12.39;90.90;100767.17;1760408;80;21725;-82
2022/10/25 02:47:54;;;;;;;18.10;11.30;;;;;;;12.38;90.98;100763.63;1763261;80;21038;-82
2022/10/25 02:50:21;;;;;;;16.65;10.15;;;;;;;12.38;90.99;100770.66;1755020;80;21028;-82
2022/10/25 02:52:48;;;;;;;16.55;9.45;;;;;;;12.38;91.03;100769.34;1771492;80;21028;-82
2022/10/25 02:55:15;;;;;;;13.22;10.05;;;;;;;12.35;91.06;100760.95;1764447;80;20995;-82
2022/10/25 02:57:42;;;;;;;15.58;9.60;;;;;;;12.36;91.07;100769.75;1778287;80;21728;-82
2022/10/25 03:00:12;;;;;;;16.57;9.90;;;;;;;12.35;91.06;100764.91;1739384;81;21456;-82
2022/10/25 03:02:39;;;;;;;18.17;9.90;;;;;;;12.36;91.26;100764.02;1698000;83;21051;-82
2022/10/25 03:05:06;;;;;;;17.35;9.73;;;;;;;12.40;91.43;100768.49;1721365;81;21061;-83
2022/10/25 03:07:33;;;;;;;18.37;10.23;;;;;;;12.44;91.48;100771.67;1724692;81;20986;-83
2022/10/25 03:10:00;;;;;;;17.20;11.05;;;;;;;12.47;91.39;100766.86;1751235;81;21748;-82
2022/10/25 03:12:26;;;;;;;17.17;11.03;;;;;;;12.47;91.27;100768.63;1714322;81;20908;-82
2022/10/25 03:14:53;;;;;;;20.55;13.08;;;;;;;12.43;91.20;100767.68;1704779;82;21046;-82
2022/10/25 03:17:20;;;;;;;15.05;10.78;;;;;;;12.41;91.14;100767.64;1707321;81;20961;-83
2022/10/25 03:19:53;;;;;;;17.00;10.72;;;;;;;12.39;91.13;100759.25;1723971;82;20918;-82
2022/10/25 03:22:17;;;;;;;16.27;11.00;;;;;;;12.39;91.15;100761.45;1706317;83;21729;-82
2022/10/25 03:24:44;;;;;;;17.48;11.63;;;;;;;12.36;91.02;100758.75;1698551;82;20994;-82
2022/10/25 03:27:11;;;;;;;18.42;11.85;;;;;;;12.31;90.93;100763.05;1713898;83;20967;-82
2022/10/25 03:29:38;;;;;;;19.82;10.75;;;;;;;12.28;90.94;100761.69;1738676;81;21014;-82
2022/10/25 03:32:06;;;;;;;15.18;11.12;;;;;;;12.25;90.99;100757.67;1689252;81;21040;-82
2022/10/25 03:34:33;;;;;;;20.68;13.13;;;;;;;12.24;91.07;100766.02;1726545;82;21738;-82
2022/10/25 03:37:00;;;;;;;21.80;11.63;;;;;;;12.20;91.10;100749.68;1727346;82;20983;-82
2022/10/25 03:39:27;;;;;;;19.12;10.78;;;;;;;12.20;91.10;100753.64;1705018;82;20989;-81
2022/10/25 03:41:54;;;;;;;22.10;12.55;;;;;;;12.18;91.13;100758.00;1723334;82;21070;-82
2022/10/25 03:44:21;;;;;;;15.85;9.95;;;;;;;12.17;91.10;100759.29;1717596;81;21147;-82
2022/10/25 03:46:49;;;;;;;14.93;10.23;;;;;;;12.13;91.08;100760.09;1705264;82;21059;-81
2022/10/25 03:49:16;;;;;;;13.93;10.70;;;;;;;12.08;90.95;100757.35;1701043;82;21100;-83
2022/10/25 03:51:43;;;;;;;13.75;9.25;;;;;;;12.04;90.93;100761.68;1684542;82;21117;-82
2022/10/25 03:54:09;;;;;;;15.15;10.30;;;;;;;12.00;90.92;100761.17;1687649;80;21061;-81
2022/10/25 03:56:40;;;;;;;20.85;10.20;;;;;;;11.97;90.92;100760.22;1708182;82;21725;-81
2022/10/25 03:59:07;;;;;;;13.98;10.32;;;;;;;11.94;90.96;100764.13;1699203;82;21105;-81
2022/10/25 04:01:34;;;;;;;17.37;10.63;;;;;;;11.92;91.06;100756.59;1702156;82;21089;-82
2022/10/25 04:04:00;;;;;;;16.35;10.23;;;;;;;11.89;91.09;100760.47;1672768;82;21032;-81
2022/10/25 04:06:27;;;;;;;14.18;9.50;;;;;;;11.86;91.13;100758.23;1700273;82;21129;-82
2022/10/25 04:08:55;;;;;;;13.85;9.50;;;;;;;11.76;91.13;100735.60;1707394;82;21102;-81
2022/10/25 04:11:24;;;;;;;17.95;10.40;;;;;;;11.82;91.16;100750.22;1699681;82;21141;-82
2022/10/25 04:13:50;;;;;;;18.95;10.60;;;;;;;11.81;91.19;100748.45;1695890;83;21100;-81
2022/10/25 04:16:18;;;;;;;15.03;10.40;;;;;;;11.81;91.29;100754.61;1713033;83;21085;-82
2022/10/25 04:18:45;;;;;;;16.02;9.50;;;;;;;11.77;91.16;100760.69;1679973;83;21069;-82
2022/10/25 04:21:12;;;;;;;17.90;9.83;;;;;;;11.74;91.13;100759.30;1696594;83;21072;-82
2022/10/25 04:23:39;;;;;;;16.87;9.78;;;;;;;11.65;91.04;100757.34;1719718;81;21733;-82
2022/10/25 04:26:06;;;;;;;14.15;9.83;;;;;;;11.64;91.01;100767.45;1694229;82;21662;-81
2022/10/25 04:28:32;;;;;;;14.43;9.65;;;;;;;11.61;91.02;100764.73;1713146;81;21069;-81
2022/10/25 04:31:02;;;;;;;14.13;9.18;;;;;;;11.57;91.07;100757.62;1724607;82;21168;-87
2022/10/25 04:33:32;;;;;;;13.38;8.80;;;;;;;11.55;91.15;100761.11;1726651;81;21603;-84
2022/10/25 04:35:58;;;;;;;15.83;10.05;;;;;;;11.51;91.04;100760.14;1723412;81;21780;-86
2022/10/25 04:38:28;;;;;;;12.73;8.48;;;;;;;11.50;91.17;100759.67;1727354;81;21116;-87
2022/10/25 04:40:55;;;;;;;15.20;9.30;;;;;;;11.48;91.22;100758.75;1719905;81;21834;-86
2022/10/25 04:43:26;;;;;;;16.87;9.73;;;;;;;11.46;91.21;100757.39;1705143;81;21102;-85
2022/10/25 04:46:00;;;;;;;13.15;8.80;;;;;;;11.40;91.22;100753.76;1673441;84;21199;-87
2022/10/25 04:48:29;;;;;;;14.10;9.33;;;;;;;11.43;91.23;100766.58;1667887;83;21133;-84
2022/10/25 04:51:00;;;;;;;19.00;11.35;;;;;;;11.41;91.29;100759.06;1672941;83;21109;-84
2022/10/25 04:53:27;;;;;;;61.33;29.40;;;;;;;11.40;91.26;100767.81;1708150;82;21117;-85
2022/10/25 04:56:03;;;;;;;47.15;25.68;;;;;;;11.38;91.28;100763.38;1696297;81;21090;-84
2022/10/25 04:58:33;;;;;;;48.50;26.75;;;;;;;11.35;91.19;100764.62;1722321;81;21082;-84
2022/10/25 05:01:06;;;;;;;78.92;36.53;;;;;;;11.31;91.19;100762.34;1737775;81;21834;-84
2022/10/25 05:03:33;;;;;;;67.65;32.80;;;;;;;11.27;91.04;100759.18;1698310;81;21063;-85
2022/10/25 05:06:09;;;;;;;64.55;27.55;;;;;;;11.21;90.98;100762.56;1714481;81;21020;-84
2022/10/25 05:08:40;;;;;;;47.67;23.87;;;;;;;11.19;91.08;100768.23;1710330;82;20986;-84
2022/10/25 05:11:09;;;;;;;45.12;23.25;;;;;;;11.17;91.14;100765.11;1694872;83;21002;-84
2022/10/25 05:13:37;;;;;;;35.23;19.77;;;;;;;11.14;91.25;100758.01;1680686;83;21690;-83
2022/10/25 05:16:05;;;;;;;36.83;18.70;;;;;;;11.13;91.32;100761.92;1695538;83;21010;-83
2022/10/25 05:18:32;;;;;;;33.88;15.63;;;;;;;11.11;91.32;100761.88;1704124;83;21172;-83
2022/10/25 05:21:03;;;;;;;29.10;13.93;;;;;;;11.10;91.43;100771.97;1693787;82;21039;-83
2022/10/25 05:23:30;;;;;;;22.90;12.88;;;;;;;11.09;91.53;100775.05;1692912;80;21001;-83
2022/10/25 05:26:02;;;;;;;17.65;11.65;;;;;;;11.08;91.45;100778.52;1687803;82;21568;-83
2022/10/25 05:28:29;;;;;;;18.73;10.28;;;;;;;11.08;91.61;100783.78;1704290;82;20984;-83
2022/10/25 05:30:56;;;;;;;17.67;10.50;;;;;;;11.08;91.61;100769.30;1687403;83;21580;-83
2022/10/25 05:33:23;;;;;;;14.28;10.25;;;;;;;11.10;91.77;100775.92;1684928;82;21132;-83
2022/10/25 05:35:49;;;;;;;17.48;9.55;;;;;;;11.09;91.67;100777.67;1690435;83;21160;-83
2022/10/25 05:38:17;;;;;;;17.82;10.10;;;;;;;11.10;91.75;100781.19;1677518;84;21820;-83
2022/10/25 05:40:45;;;;;;;22.98;10.58;;;;;;;11.13;91.86;100785.23;1705702;83;21066;-83
2022/10/25 05:43:12;;;;;;;15.63;10.18;;;;;;;11.14;91.82;100782.16;1707911;83;21078;-83
2022/10/25 05:45:43;;;;;;;17.87;10.40;;;;;;;11.14;91.77;100788.30;1720626;82;21091;-83
2022/10/25 05:48:11;;;;;;;16.32;9.48;;;;;;;11.14;91.66;100790.06;1672988;84;21089;-83
2022/10/25 05:50:38;;;;;;;13.25;9.98;;;;;;;11.13;91.60;100797.48;1700698;83;22579;-83
2022/10/25 05:53:08;;;;;;;17.30;9.85;;;;;;;11.11;91.43;100797.88;1661763;83;21058;-83
2022/10/25 05:55:35;;;;;;;15.18;9.75;;;;;;;11.09;91.48;100805.34;1700912;82;21078;-84
2022/10/25 05:58:03;;;;;;;17.12;9.68;;;;;;;11.08;91.58;100804.86;1712128;82;21091;-84
2022/10/25 06:00:30;;;;;;;12.05;9.75;;;;;;;11.11;91.64;100804.47;1751999;80;21057;-84
2022/10/25 06:03:00;;;;;;;17.17;10.63;;;;;;;11.09;91.55;100801.38;1770394;79;21637;-84
2022/10/25 06:05:27;;;;;;;17.25;10.03;;;;;;;11.09;91.45;100801.79;1738607;82;20899;-84
2022/10/25 06:07:54;;;;;;;14.65;10.10;;;;;;;11.07;91.44;100804.81;1738644;82;21010;-84
2022/10/25 06:10:21;;;;;;;16.48;10.20;;;;;;;11.06;91.35;100801.73;1738526;82;20991;-84
2022/10/25 06:12:48;;;;;;;13.65;9.68;;;;;;;11.06;91.42;100800.42;1738644;81;21006;-84
2022/10/25 06:15:15;;;;;;;19.05;9.53;;;;;;;11.07;91.43;100802.18;1725805;82;21713;-83
2022/10/25 06:17:42;;;;;;;13.00;9.43;;;;;;;11.08;91.51;100802.66;1737012;82;20991;-83
2022/10/25 06:20:10;;;;;;;14.58;9.28;;;;;;;11.09;91.63;100806.66;1713744;82;21060;-84
2022/10/25 06:22:37;;;;;;;13.93;9.15;;;;;;;11.12;91.72;100801.88;1717441;83;20987;-84
2022/10/25 06:25:05;;;;;;;13.50;9.48;;;;;;;11.15;91.84;100807.22;1726624;82;20991;-84
2022/10/25 06:27:32;;;;;;;14.83;9.40;;;;;;;11.18;91.83;100805.95;1733522;82;21695;-84
2022/10/25 06:29:59;;;;;;;13.48;9.73;;;;;;;11.22;91.93;100816.14;1723962;82;21042;-83
2022/10/25 06:32:27;;;;;;;14.85;9.65;;;;;;;11.28;92.12;100817.63;1711614;82;21051;-84
2022/10/25 06:34:54;;;;;;;16.55;9.70;;;;;;;11.36;92.31;100822.64;1685011;82;20998;-83
2022/10/25 06:37:22;;;;;;;18.92;9.25;;;;;;;11.44;92.44;100818.41;1718339;82;21086;-84
2022/10/25 06:39:49;;;;;;;13.62;9.35;;;;;;;11.52;92.50;100823.86;1704620;82;22874;-84
2022/10/25 06:42:16;;;;;;;15.18;10.28;;;;;;;11.58;92.49;100826.65;1724528;81;21194;-84
2022/10/25 06:44:43;;;;;;;16.25;10.40;;;;;;;11.65;92.51;100828.98;1729782;81;21038;-84
2022/10/25 06:47:11;;;;;;;15.03;10.80;;;;;;;11.75;92.78;100837.56;1706975;82;21097;-84
2022/10/25 06:49:41;;;;;;;19.35;10.65;;;;;;;11.83;92.77;100838.61;1706128;82;21075;-84
2022/10/25 06:52:07;;;;;;;17.32;10.78;;;;;;;11.93;92.81;100841.03;1744077;81;21786;-84
2022/10/25 06:54:34;;;;;;;24.57;12.33;;;;;;;12.00;92.78;100840.31;1729564;81;21147;-84
2022/10/25 06:57:01;;;;;;;15.60;11.20;;;;;;;12.09;92.82;100833.42;1726563;81;21129;-84
2022/10/25 06:59:28;;;;;;;17.65;13.00;;;;;;;12.17;92.87;100836.69;1754987;81;21139;-84
2022/10/25 07:01:56;;;;;;;23.18;13.22;;;;;;;12.27;92.93;100830.28;1745550;81;21038;-84
2022/10/25 07:04:23;;;;;;;17.52;13.03;;;;;;;12.36;92.92;100831.77;1750290;81;22104;-84
2022/10/25 07:06:50;;;;;;;18.62;12.53;;;;;;;12.42;92.82;100832.77;1746133;81;21635;-84
2022/10/25 07:09:16;;;;;;;19.50;12.80;;;;;;;12.48;92.69;100830.70;1749681;81;21104;-84
2022/10/25 07:11:44;;;;;;;16.25;12.20;;;;;;;12.56;92.71;100828.20;1750618;81;21092;-84
2022/10/25 07:14:11;;;;;;;17.37;12.95;;;;;;;12.63;92.64;100832.30;1730688;81;21523;-84
2022/10/25 07:16:38;;;;;;;16.35;12.23;;;;;;;12.72;92.61;100833.30;1716069;82;21837;-84
2022/10/25 07:19:05;;;;;;;16.23;12.13;;;;;;;12.79;92.54;100840.48;1754708;81;21120;-83
2022/10/25 07:21:33;;;;;;;17.77;11.85;;;;;;;12.87;92.50;100839.28;1737197;81;21546;-84
2022/10/25 07:24:00;;;;;;;15.70;11.70;;;;;;;12.94;92.45;100839.41;1752577;81;21137;-83
2022/10/25 07:26:36;;;;;;;14.07;10.78;;;;;;;13.05;92.47;100835.63;1750429;81;21092;-84
2022/10/25 07:29:03;;;;;;;14.75;11.12;;;;;;;13.14;92.33;100841.52;1752316;81;21549;-84
2022/10/25 07:31:35;;;;;;;19.62;10.85;;;;;;;13.23;92.21;100847.83;1737154;81;21069;-84
2022/10/25 07:34:03;;;;;;;13.80;10.60;;;;;;;13.32;92.10;100841.80;1750564;80;21211;-84
2022/10/25 07:36:30;;;;;;;18.35;10.20;;;;;;;13.40;91.98;100848.12;1743321;81;21135;-83
2022/10/25 07:38:59;;;;;;;14.58;8.35;;;;;;;13.49;91.90;100845.14;1750621;81;21563;-84
2022/10/25 07:41:26;;;;;;;13.60;8.03;;;;;;;13.57;91.68;100846.13;1750686;81;21760;-84
2022/10/25 07:43:56;;;;;;;12.80;8.30;;;;;;;13.64;91.51;100848.00;1750565;80;21299;-84
2022/10/25 07:46:23;;;;;;;15.83;11.05;;;;;;;13.70;91.46;100851.16;1733161;81;22376;-84
2022/10/25 07:48:51;;;;;;;12.43;7.42;;;;;;;13.77;91.41;100847.73;1734643;81;21460;-84
2022/10/25 07:51:19;;;;;;;12.47;8.45;;;;;;;13.84;91.30;100851.37;1748620;81;20966;-84
2022/10/25 07:53:46;;;;;;;12.13;8.85;;;;;;;13.90;91.05;100844.38;1716260;82;22028;-84
2022/10/25 07:56:14;;;;;;;16.85;9.13;;;;;;;13.98;91.04;100851.09;1716738;82;21152;-84
2022/10/25 07:58:41;;;;;;;19.05;9.40;;;;;;;14.06;90.94;100847.21;1726831;82;21149;-84
2022/10/25 08:01:09;;;;;;;13.55;7.72;;;;;;;14.12;90.82;100852.16;1716918;82;21094;-84
2022/10/25 08:03:36;;;;;;;15.03;8.13;;;;;;;14.18;90.61;100852.23;1717505;81;21121;-84
2022/10/25 08:06:03;;;;;;;13.28;7.80;;;;;;;14.24;90.40;100846.56;1750738;80;21778;-83
2022/10/25 08:08:30;;;;;;;9.25;5.25;;;;;;;14.29;90.34;100848.39;1722597;81;21127;-83
2022/10/25 08:10:58;;;;;;;7.42;5.22;;;;;;;14.35;89.96;100843.15;1743253;81;21470;-84
2022/10/25 08:13:25;;;;;;;11.97;5.15;;;;;;;14.42;89.88;100845.45;1738243;81;21089;-84
2022/10/25 08:15:53;;;;;;;8.43;4.55;;;;;;;14.49;89.70;100845.97;1737642;81;21104;-84
2022/10/25 08:18:20;;;;;;;9.85;4.30;;;;;;;14.57;89.64;100847.41;1752298;80;21740;-84
2022/10/25 08:20:48;;;;;;;8.15;4.53;;;;;;;14.65;89.30;100847.03;1724905;81;21001;-84
2022/10/25 08:23:18;;;;;;;8.33;3.25;;;;;;;14.70;89.06;100853.27;1752490;81;21006;-84
2022/10/25 08:25:45;;;;;;;8.78;4.12;;;;;;;14.75;88.87;100851.56;1732142;81;21024;-84
2022/10/25 08:28:12;;;;;;;11.43;4.17;;;;;;;14.80;88.59;100856.01;1722708;82;21378;-84
2022/10/25 08:30:41;;;;;;;9.85;5.53;;;;;;;14.88;88.61;100858.28;1728653;82;22380;-84
2022/10/25 08:33:08;;;;;;;8.35;3.58;;;;;;;14.95;88.47;100851.72;1741301;81;20998;-84
2022/10/25 08:35:35;;;;;;;9.60;3.30;;;;;;;15.04;88.37;100858.00;1724845;81;21065;-84
2022/10/25 08:38:03;;;;;;;8.65;3.40;;;;;;;15.13;88.21;100856.75;1746283;80;20997;-84
2022/10/25 08:40:58;;;;;;;10.20;3.40;;;;;;;15.22;87.84;100862.54;1738472;81;21823;-84
2022/10/25 08:44:08;;;;;;;10.53;3.58;;;;;;;15.29;87.75;100862.59;1752305;81;22445;-84
2022/10/25 08:46:54;;;;;;;11.88;3.62;;;;;;;15.41;87.68;100867.54;1738892;80;21001;-84
2022/10/25 08:49:56;;;;;;;6.80;3.30;;;;;;;15.53;87.53;100859.67;1752147;80;21573;-84
2022/10/25 08:52:43;;;;;;;7.80;3.05;;;;;;;15.63;87.23;100865.47;1725369;81;21089;-84
2022/10/25 08:55:28;;;;;;;7.35;3.17;;;;;;;15.70;86.97;100861.98;1713613;82;21027;-84
2022/10/25 08:57:55;;;;;;;9.45;3.30;;;;;;;15.79;86.62;100864.30;1728685;82;21831;-84
2022/10/25 09:00:22;;;;;;;5.78;3.12;;;;;;;15.84;86.33;100863.85;1724868;82;21035;-84
2022/10/25 09:02:55;;;;;;;7.58;3.02;;;;;;;15.90;86.14;100868.77;1729807;82;21035;-83
2022/10/25 09:05:40;;;;;;;9.33;3.70;;;;;;;15.97;85.95;100861.70;1722504;82;21050;-84
2022/10/25 09:08:43;;;;;;;5.97;2.87;;;;;;;16.05;85.78;100861.77;1688640;83;21059;-84
2022/10/25 09:11:28;;;;;;;10.60;3.30;;;;;;;16.11;85.34;100853.82;1701417;83;21775;-83
2022/10/25 09:14:09;;;;;;;;;;;;;;;16.16;84.91;100861.78;1702380;83;21096;-84
2022/10/25 09:16:53;;;;;;;8.60;3.45;;;;;;;16.23;84.73;100868.91;1715829;81;20802;-84
2022/10/25 09:19:29;;;;;;;;;;;;;;;16.28;84.73;100861.84;1720052;82;21482;-83
2022/10/25 09:22:00;;;;;;;12.78;3.67;;;;;;;16.31;84.34;100864.48;1672424;83;20228;-83
2022/10/25 09:24:33;;;;;;;10.32;3.47;;;;;;;16.33;84.26;100866.73;1681231;83;22476;-83
2022/10/25 09:27:13;;;;;;;8.53;3.42;;;;;;;16.38;84.04;100865.41;1714680;82;21062;-83
2022/10/25 09:29:57;;;;;;;12.20;4.42;;;;;;;16.39;83.74;100873.84;1722569;82;21130;-83
2022/10/25 09:32:32;;;;;;;8.43;3.80;;;;;;;16.38;83.56;100876.03;1719465;82;29002;-83
2022/10/25 09:34:59;;;;;;;7.40;3.65;;;;;;;16.41;83.59;100878.72;1715480;81;21066;-83
2022/10/25 09:37:31;;;;;;;7.58;3.08;;;;;;;16.42;83.27;100884.45;1750894;81;22545;-83
2022/10/25 09:40:04;;;;;;;12.33;4.75;;;;;;;16.41;82.91;100884.03;1742173;81;21363;-83
2022/10/25 09:42:38;;;;;;;13.03;4.95;;;;;;;16.37;82.49;100882.22;1741002;81;21370;-83
2022/10/25 09:45:12;;;;;;;10.45;3.80;;;;;;;16.35;82.31;100878.67;1708441;81;22147;-83
2022/10/25 09:47:51;;;;;;;;;;;;;;;16.33;82.28;100881.35;1741223;80;21080;-83
2022/10/25 09:50:30;;;;;;;8.13;3.27;;;;;;;16.31;82.12;100886.66;1750648;81;22988;-83
2022/10/25 09:53:11;;;;;;;9.35;3.25;;;;;;;16.29;82.08;100880.45;1750290;81;21168;-83
2022/10/25 09:55:57;;;;;;;9.28;3.05;;;;;;;16.15;81.98;100864.89;1715837;82;21104;-83
2022/10/25 09:58:29;;;;;;;10.05;3.33;;;;;;;16.25;81.82;100883.95;1692029;83;21492;-83
2022/10/25 10:00:59;;;;;;;8.00;2.72;;;;;;;16.22;81.58;100889.27;1681456;83;21006;-83
2022/10/25 10:03:34;;;;;;;6.70;2.83;;;;;;;16.22;81.58;100889.27;1667252;84;21728;-83
2022/10/25 10:06:20;;;;;;;11.63;3.02;;;;;;;16.22;81.33;100893.25;1673717;83;21035;-83
2022/10/25 10:08:51;;;;;;;7.17;3.02;;;;;;;16.18;81.28;100890.15;1711178;82;21015;-83
2022/10/25 10:11:21;;;;;;;10.93;3.02;;;;;;;16.12;81.08;100894.98;1734915;81;21017;-83
2022/10/25 10:13:58;;;;;;;7.65;3.30;;;;;;;16.12;81.03;100895.41;1752166;81;20978;-83
2022/10/25 10:16:34;;;;;;;9.10;3.42;;;;;;;16.10;80.97;100896.75;1737809;81;21886;-83
2022/10/25 10:19:17;;;;;;;7.87;3.27;;;;;;;16.05;80.80;100893.19;1749981;81;21483;-83
2022/10/25 10:21:49;;;;;;;12.70;3.40;;;;;;;15.99;80.74;100901.13;1749915;81;21612;-83
2022/10/25 10:24:37;;;;;;;7.10;3.15;;;;;;;15.96;80.73;100904.20;1747338;81;21182;-83
2022/10/25 10:27:22;;;;;;;9.85;3.55;;;;;;;16.04;81.14;100903.34;1740150;81;21199;-83
2022/10/25 10:30:06;;;;;;;5.53;3.15;;;;;;;16.22;81.20;100902.55;1703411;82;21807;-83
2022/10/25 10:32:36;;;;;;;10.35;3.08;;;;;;;16.44;81.08;100903.53;1743934;81;21560;-83
2022/10/25 10:35:05;;;;;;;9.45;3.40;;;;;;;16.60;80.56;100908.43;1736088;81;21117;-83
2022/10/25 10:37:32;;;;;;;6.72;3.55;;;;;;;16.69;80.29;100904.47;1740052;81;21085;-83
2022/10/25 10:40:09;;;;;;;11.68;4.47;;;;;;;16.73;79.92;100902.71;1715235;81;21538;-84
2022/10/25 10:42:43;;;;;;;27.58;5.35;;;;;;;16.70;79.53;100905.34;1758846;81;21913;-83
2022/10/25 10:45:18;;;;;;;9.10;3.90;;;;;;;16.65;79.39;100904.02;1684763;81;21696;-83
2022/10/25 10:47:55;;;;;;;7.25;3.67;;;;;;;16.64;79.32;100903.56;1701860;81;21007;-83
2022/10/25 10:50:29;;;;;;;7.70;4.33;;;;;;;16.64;79.10;100898.25;1720720;81;21042;-83
2022/10/25 10:53:08;;;;;;;12.90;4.22;;;;;;;16.68;79.05;100901.80;1752355;81;21018;-84
2022/10/25 10:55:46;;;;;;;7.60;4.00;;;;;;;16.74;79.08;100900.48;1724700;81;22628;-83
2022/10/25 10:58:29;;;;;;;8.35;4.10;;;;;;;16.76;78.90;100901.81;1742283;81;20987;-83
2022/10/25 11:01:05;;;;;;;7.95;4.72;;;;;;;16.74;78.72;100900.93;1706430;83;21014;-83
2022/10/25 11:03:44;;;;;;;13.40;4.60;;;;;;;16.69;78.50;100896.95;1744501;81;21006;-83
2022/10/25 11:06:17;;;;;;;13.53;5.20;;;;;;;16.61;78.32;100902.25;1752368;81;20994;-83
2022/10/25 11:08:46;;;;;;;7.37;4.33;;;;;;;16.56;78.18;100900.47;1735722;82;22354;-83
2022/10/25 11:11:20;;;;;;;8.93;4.62;;;;;;;16.52;78.15;100907.08;1757146;81;21042;-83
2022/10/25 11:13:58;;;;;;;9.38;4.15;;;;;;;16.52;78.12;100905.76;1758089;81;21015;-83
2022/10/25 11:17:13;;;;;;;10.95;4.50;;;;;;;16.56;77.96;100911.09;1742873;81;20998;-83
2022/10/25 11:20:00;;;;;;;12.85;4.28;;;;;;;16.70;78.19;100910.66;1735115;81;21010;-83
2022/10/25 11:22:41;;;;;;;8.40;3.92;;;;;;;17.02;78.27;100919.17;1754189;81;21740;-83
2022/10/25 11:25:40;;;;;;;8.58;4.20;;;;;;;17.24;78.00;100922.30;1756289;81;20994;-83
2022/10/25 11:28:40;;;;;;;7.62;3.87;;;;;;;17.46;77.90;100920.98;1714883;81;21058;-83
2022/10/25 11:31:27;;;;;;;5.55;3.22;;;;;;;17.80;77.41;100918.27;1741671;81;21002;-83
2022/10/25 11:34:14;;;;;;;7.30;2.87;;;;;;;18.13;77.30;100916.42;1760214;81;21058;-83
2022/10/25 11:37:07;;;;;;;5.35;3.02;;;;;;;18.36;76.45;100919.02;1719292;81;21790;-83
2022/10/25 11:39:55;;;;;;;5.37;2.50;;;;;;;18.37;75.49;100916.32;1700932;81;22455;-83
2022/10/25 11:42:35;;;;;;;6.72;2.35;;;;;;;18.23;74.46;100919.06;1740460;81;21006;-83